Terminal Aerodrome Forecast
Issued by NWS Green Bay, WI

Home | Current Version | Previous Version | Text Only | Print | Product List | Glossary Off
Versions: 1 2 3 4 5 6 7 8 9 10 11 12 13 14 15 16 17 18 19 20 21 22 23

000
FTUS43 KGRB 120500
TAFGRB
TAF
KGRB 120536Z 1206/1306 20005KT P6SM SCT040 BKN100
      TEMPO 1210/1214 5SM BR BKN025
     FM122200 23006KT P6SM VCSH SCT025 BKN070
      TEMPO 1223/1303 4SM TSRA OVC020CB=

USA.gov is the U.S. government's official web portal to all federal, state and local government web resources and services.